createdAt,value
2022-11-10T00:00:32.515Z,92.65
2022-11-10T00:01:32.519Z,92.75
2022-11-10T00:02:32.493Z,92.85
2022-11-10T00:03:32.486Z,92.85
2022-11-10T00:04:32.515Z,92.96
2022-11-10T00:05:32.467Z,92.96
2022-11-10T00:06:32.522Z,92.96
2022-11-10T00:07:32.442Z,93.06
2022-11-10T00:08:32.426Z,93.06
2022-11-10T00:09:32.419Z,93.06
2022-11-10T00:10:32.408Z,93.16
2022-11-10T00:11:32.410Z,93.26
2022-11-10T00:12:32.387Z,93.26
2022-11-10T00:13:32.374Z,93.16
2022-11-10T00:14:32.365Z,93.16
2022-11-10T00:15:32.350Z,93.06
2022-11-10T00:16:32.356Z,93.16
2022-11-10T00:17:32.334Z,93.26
2022-11-10T00:18:32.320Z,93.37
2022-11-10T00:19:32.320Z,93.37
2022-11-10T00:20:32.298Z,93.26
2022-11-10T00:21:32.296Z,93.16
2022-11-10T00:22:32.287Z,93.16
2022-11-10T00:23:32.274Z,93.20
2022-11-10T00:24:32.256Z,93.30
2022-11-10T00:25:32.256Z,93.51
2022-11-10T00:26:32.242Z,93.62
2022-11-10T00:27:32.232Z,93.71
2022-11-10T00:28:32.213Z,93.71
2022-11-10T00:29:32.195Z,93.71
2022-11-10T00:30:32.192Z,93.82
2022-11-10T00:31:32.186Z,93.82
2022-11-10T00:32:32.171Z,93.92
2022-11-10T00:33:32.151Z,93.92
2022-11-10T00:34:32.147Z,94.02
2022-11-10T00:35:32.131Z,94.12
2022-11-10T00:36:32.140Z,94.12
2022-11-10T00:37:32.108Z,94.02
2022-11-10T00:38:32.101Z,94.12
2022-11-10T00:39:32.084Z,94.12
2022-11-10T00:40:32.088Z,94.02
2022-11-10T00:41:32.066Z,93.92
2022-11-10T00:42:32.066Z,93.92
2022-11-10T00:43:32.433Z,93.92
2022-11-10T00:44:32.034Z,94.12
2022-11-10T00:45:32.021Z,94.02
2022-11-10T00:46:32.013Z,94.12
2022-11-10T00:47:32.008Z,94.02
2022-11-10T00:48:31.992Z,94.02
2022-11-10T00:49:31.982Z,94.12
2022-11-10T00:50:31.972Z,94.23
2022-11-10T00:51:31.952Z,94.23
2022-11-10T00:52:31.958Z,94.33
2022-11-10T00:53:31.933Z,94.33
2022-11-10T00:54:31.925Z,94.48
2022-11-10T00:55:31.908Z,94.48
2022-11-10T00:56:31.901Z,94.58
2022-11-10T00:57:31.902Z,94.68
2022-11-10T00:58:31.881Z,94.58
2022-11-10T00:59:31.866Z,94.58
2022-11-10T01:00:31.860Z,94.58
2022-11-10T01:01:31.911Z,94.68
2022-11-10T01:02:31.848Z,94.89
2022-11-10T01:03:31.822Z,94.99
2022-11-10T01:04:31.819Z,95.14
2022-11-10T01:05:38.166Z,95.24
2022-11-10T01:06:31.845Z,95.44
2022-11-10T01:07:31.785Z,95.44
2022-11-10T01:08:31.771Z,95.44
2022-11-10T01:09:31.758Z,95.54
2022-11-10T01:10:31.751Z,95.54
2022-11-10T01:11:31.738Z,95.54
2022-11-10T01:12:31.733Z,95.54
2022-11-10T01:13:31.752Z,95.65
2022-11-10T01:14:31.703Z,95.75
2022-11-10T01:15:31.699Z,95.75
2022-11-10T01:16:31.683Z,95.86
2022-11-10T01:17:31.720Z,95.70
2022-11-10T01:18:31.660Z,95.70
2022-11-10T01:19:31.651Z,95.61
2022-11-10T01:20:31.649Z,95.50
2022-11-10T01:21:31.700Z,95.54
2022-11-10T01:22:31.631Z,95.54
2022-11-10T01:23:31.601Z,95.54
2022-11-10T01:24:31.593Z,95.65
2022-11-10T01:25:31.582Z,95.65
2022-11-10T01:26:31.572Z,95.86
2022-11-10T01:27:31.567Z,95.95
2022-11-10T01:28:31.552Z,95.86
2022-11-10T01:29:31.541Z,95.86
2022-11-10T01:30:31.534Z,95.86
2022-11-10T01:31:31.512Z,95.86
2022-11-10T01:32:31.515Z,95.86
2022-11-10T01:33:31.505Z,96.06
2022-11-10T01:34:31.483Z,96.06
2022-11-10T01:35:31.468Z,96.06
2022-11-10T01:36:31.465Z,96.16
2022-11-10T01:37:31.500Z,96.26
2022-11-10T01:38:31.439Z,96.37
2022-11-10T01:39:31.426Z,96.26
2022-11-10T01:40:31.469Z,96.26
2022-11-10T01:41:31.422Z,96.37
2022-11-10T01:42:31.406Z,96.37
2022-11-10T01:43:31.390Z,96.26
2022-11-10T01:44:31.374Z,96.47
2022-11-10T01:45:32.065Z,96.57
2022-11-10T01:46:31.351Z,96.47
2022-11-10T01:47:31.584Z,96.37
2022-11-10T01:48:31.329Z,96.47
2022-11-10T01:49:31.313Z,96.47
2022-11-10T01:50:31.336Z,96.47
2022-11-10T01:51:31.296Z,96.47
2022-11-10T01:52:31.293Z,96.47
2022-11-10T01:53:31.274Z,96.57
2022-11-10T01:54:31.263Z,96.57
2022-11-10T01:55:31.253Z,96.62
2022-11-10T01:56:31.240Z,96.62
2022-11-10T01:57:31.242Z,96.62
2022-11-10T01:58:31.220Z,96.72
2022-11-10T01:59:31.207Z,96.72
2022-11-10T02:00:31.278Z,96.92
2022-11-10T02:01:31.191Z,97.03
2022-11-10T02:02:31.216Z,96.92
2022-11-10T02:03:31.169Z,96.92
2022-11-10T02:04:31.150Z,96.92
2022-11-10T02:05:31.143Z,96.92
2022-11-10T02:06:31.170Z,96.82
2022-11-10T02:07:31.121Z,96.92
2022-11-10T02:08:31.116Z,96.92
2022-11-10T02:09:31.100Z,97.03
2022-11-10T02:10:31.083Z,97.13
2022-11-10T02:11:31.076Z,97.23
2022-11-10T02:12:31.062Z,97.23
2022-11-10T02:13:31.067Z,97.23
2022-11-10T02:14:31.040Z,97.13
2022-11-10T02:15:31.034Z,97.17
2022-11-10T02:16:31.020Z,97.28
2022-11-10T02:17:31.010Z,97.38
2022-11-10T02:18:31.008Z,97.38
2022-11-10T02:19:30.988Z,97.58
2022-11-10T02:20:30.973Z,97.58
2022-11-10T02:21:30.966Z,97.58
2022-11-10T02:22:30.950Z,97.63
2022-11-10T02:23:30.957Z,97.63
2022-11-10T02:24:30.932Z,97.73
2022-11-10T02:25:30.923Z,97.63
2022-11-10T02:26:30.908Z,97.73
2022-11-10T02:27:30.902Z,97.83
2022-11-10T02:28:30.896Z,97.78
2022-11-10T02:29:30.879Z,97.78
2022-11-10T02:30:30.865Z,97.67
2022-11-10T02:31:30.857Z,97.67
2022-11-10T02:32:30.842Z,97.67
2022-11-10T02:33:30.848Z,97.82
2022-11-10T02:34:30.820Z,97.92
2022-11-10T02:35:30.824Z,98.03
2022-11-10T02:36:30.800Z,98.13
2022-11-10T02:37:30.820Z,98.24
2022-11-10T02:38:30.785Z,98.28
2022-11-10T02:39:30.792Z,98.38
2022-11-10T02:40:30.754Z,98.49
2022-11-10T02:41:30.752Z,98.69
2022-11-10T02:42:30.732Z,98.75
2022-11-10T02:43:30.736Z,98.79
2022-11-10T02:44:30.712Z,98.85
2022-11-10T02:45:30.701Z,98.90
2022-11-10T02:46:30.690Z,99.16
2022-11-10T02:47:30.680Z,99.16
2022-11-10T02:48:30.675Z,99.05
2022-11-10T02:49:30.662Z,99.16
2022-11-10T02:50:30.643Z,99.26
2022-11-10T02:51:30.636Z,99.37
2022-11-10T02:52:30.621Z,99.16
2022-11-10T02:53:30.624Z,99.16
2022-11-10T02:54:30.599Z,99.16
2022-11-10T02:55:30.593Z,99.16
2022-11-10T02:56:30.581Z,99.16
2022-11-10T02:57:30.572Z,99.37
2022-11-10T02:58:30.571Z,99.37
2022-11-10T02:59:30.547Z,99.37
2022-11-10T03:00:30.532Z,99.47
2022-11-10T03:01:30.576Z,99.57
2022-11-10T03:02:32.379Z,99.57
2022-11-10T03:03:30.518Z,99.57
2022-11-10T03:04:30.492Z,99.63
2022-11-10T03:05:30.482Z,99.63
2022-11-10T03:06:30.562Z,99.73
2022-11-10T03:07:30.462Z,99.63
2022-11-10T03:08:30.456Z,99.52
2022-11-10T03:09:30.437Z,99.52
2022-11-10T03:10:30.423Z,99.52
2022-11-10T03:11:32.420Z,99.52
2022-11-10T03:12:30.400Z,99.42
2022-11-10T03:13:45.369Z,99.42
2022-11-10T03:14:30.383Z,99.42
2022-11-10T03:15:30.372Z,99.32
2022-11-10T03:16:30.395Z,99.27
2022-11-10T03:17:30.348Z,99.27
2022-11-10T03:18:30.343Z,99.38
2022-11-10T03:19:30.330Z,99.38
2022-11-10T03:20:30.312Z,99.27
2022-11-10T03:21:30.307Z,99.17
2022-11-10T03:22:30.295Z,99.07
2022-11-10T03:23:30.294Z,99.07
2022-11-10T03:24:30.274Z,99.07
2022-11-10T03:25:30.260Z,98.96
2022-11-10T03:26:30.247Z,98.96
2022-11-10T03:27:30.239Z,98.96
2022-11-10T03:28:30.238Z,98.96
2022-11-10T03:29:30.224Z,99.07
2022-11-10T03:30:30.205Z,99.07
2022-11-10T03:31:30.195Z,99.07
2022-11-10T03:32:30.178Z,98.96
2022-11-10T03:33:30.187Z,98.96
2022-11-10T03:34:31.903Z,98.96
2022-11-10T03:35:30.151Z,98.86
2022-11-10T03:36:30.138Z,98.96
2022-11-10T03:37:30.127Z,98.96
2022-11-10T03:38:30.116Z,99.07
2022-11-10T03:39:30.115Z,98.96
2022-11-10T03:40:30.091Z,98.96
2022-11-10T03:41:30.084Z,98.96
2022-11-10T03:42:30.072Z,98.96
2022-11-10T03:43:30.065Z,98.96
2022-11-10T03:44:30.057Z,98.96
2022-11-10T03:45:30.040Z,98.96
2022-11-10T03:46:30.025Z,98.96
2022-11-10T03:47:30.020Z,98.96
2022-11-10T03:48:30.006Z,99.07
2022-11-10T03:49:30.004Z,98.96
2022-11-10T03:50:29.981Z,99.07
2022-11-10T03:51:29.975Z,99.07
2022-11-10T03:52:29.979Z,98.96
2022-11-10T03:53:29.958Z,99.07
2022-11-10T03:54:29.947Z,99.07
2022-11-10T03:55:29.929Z,98.96
2022-11-10T03:56:29.916Z,98.96
2022-11-10T03:57:29.911Z,98.96
2022-11-10T03:58:29.898Z,98.96
2022-11-10T03:59:29.902Z,98.96
2022-11-10T04:00:29.875Z,98.86
2022-11-10T04:01:29.937Z,98.86
2022-11-10T04:02:29.853Z,98.76
2022-11-10T04:03:29.845Z,98.76
2022-11-10T04:04:29.837Z,98.76
2022-11-10T04:05:29.821Z,98.86
2022-11-10T04:06:29.872Z,98.86
2022-11-10T04:07:29.797Z,98.86
2022-11-10T04:08:29.789Z,98.96
2022-11-10T04:09:29.781Z,99.07
2022-11-10T04:10:29.766Z,99.17
2022-11-10T04:11:29.753Z,99.27
2022-11-10T04:12:29.746Z,99.27
2022-11-10T04:13:29.729Z,99.27
2022-11-10T04:14:29.734Z,99.27
2022-11-10T04:15:29.705Z,99.27
2022-11-10T04:16:29.702Z,99.38
2022-11-10T04:17:29.683Z,99.38
2022-11-10T04:18:29.979Z,99.38
2022-11-10T04:19:29.677Z,99.38
2022-11-10T04:20:29.656Z,99.48
2022-11-10T04:21:29.642Z,99.58
2022-11-10T04:22:29.633Z,99.48
2022-11-10T04:23:29.635Z,99.48
2022-11-10T04:24:29.639Z,99.58
2022-11-10T04:25:29.599Z,99.48
2022-11-10T04:26:29.616Z,99.43
2022-11-10T04:27:29.579Z,99.33
2022-11-10T04:28:29.583Z,99.22
2022-11-10T04:29:29.552Z,99.22
2022-11-10T04:30:29.547Z,99.12
2022-11-10T04:31:29.530Z,99.02
2022-11-10T04:32:29.527Z,99.02
2022-11-10T04:33:29.507Z,99.12
2022-11-10T04:34:29.510Z,99.02
2022-11-10T04:35:29.486Z,99.02
2022-11-10T04:36:29.481Z,99.02
2022-11-10T04:37:29.465Z,98.92
2022-11-10T04:38:29.457Z,99.02
2022-11-10T04:39:29.450Z,98.92
2022-11-10T04:40:29.435Z,98.92
2022-11-10T04:41:29.431Z,98.92
2022-11-10T04:42:29.414Z,98.92
2022-11-10T04:43:29.400Z,98.82
2022-11-10T04:44:29.405Z,98.71
2022-11-10T04:45:29.376Z,98.61
2022-11-10T04:46:29.368Z,98.51
2022-11-10T04:47:29.355Z,98.61
2022-11-10T04:48:29.358Z,98.61
2022-11-10T04:49:29.331Z,98.71
2022-11-10T04:50:29.328Z,98.71
2022-11-10T04:51:29.352Z,98.71
2022-11-10T04:52:29.306Z,98.71
2022-11-10T04:53:29.303Z,98.71
2022-11-10T04:54:29.281Z,98.71
2022-11-10T04:55:29.267Z,98.61
2022-11-10T04:56:29.266Z,98.71
2022-11-10T04:57:29.247Z,98.71
2022-11-10T04:58:29.246Z,98.71
2022-11-10T04:59:29.222Z,98.71
2022-11-10T05:00:29.298Z,98.82
2022-11-10T05:01:29.207Z,98.82
2022-11-10T05:02:29.194Z,98.82
2022-11-10T05:03:29.177Z,98.71
2022-11-10T05:04:29.183Z,98.71
2022-11-10T05:05:29.154Z,98.82
2022-11-10T05:06:29.253Z,98.82
2022-11-10T05:07:29.135Z,98.82
2022-11-10T05:08:29.130Z,98.92
2022-11-10T05:09:29.122Z,98.92
2022-11-10T05:10:29.107Z,98.92
2022-11-10T05:11:29.095Z,98.92
2022-11-10T05:12:29.084Z,98.92
2022-11-10T05:13:29.081Z,98.92
2022-11-10T05:14:29.072Z,99.02
2022-11-10T05:15:29.045Z,99.02
2022-11-10T05:16:29.039Z,99.12
2022-11-10T05:17:29.026Z,99.02
2022-11-10T05:18:29.031Z,99.02
2022-11-10T05:19:29.001Z,99.02
2022-11-10T05:20:28.996Z,99.12
2022-11-10T05:21:28.979Z,99.02
2022-11-10T05:22:28.981Z,99.12
2022-11-10T05:23:28.960Z,99.02
2022-11-10T05:24:28.963Z,99.12
2022-11-10T05:25:28.938Z,99.12
2022-11-10T05:26:29.581Z,99.12
2022-11-10T05:27:28.914Z,99.02
2022-11-10T05:28:28.907Z,99.02
2022-11-10T05:29:28.902Z,99.02
2022-11-10T05:30:28.887Z,99.02
2022-11-10T05:31:28.870Z,99.02
2022-11-10T05:32:28.864Z,99.07
2022-11-10T05:33:28.858Z,99.07
2022-11-10T05:34:28.844Z,99.17
2022-11-10T05:35:28.828Z,99.17
2022-11-10T05:36:28.823Z,99.17
2022-11-10T05:37:28.805Z,99.17
2022-11-10T05:38:28.808Z,99.17
2022-11-10T05:39:28.781Z,99.17
2022-11-10T05:40:28.779Z,99.27
2022-11-10T05:41:28.760Z,99.27
2022-11-10T05:42:28.756Z,99.27
2022-11-10T05:43:28.747Z,99.38
2022-11-10T05:44:28.742Z,99.48
2022-11-10T05:45:28.717Z,99.48
2022-11-10T05:46:28.709Z,99.48
2022-11-10T05:47:28.694Z,99.58
2022-11-10T05:48:28.698Z,99.58
2022-11-10T05:49:28.672Z,99.58
2022-11-10T05:50:28.667Z,99.58
2022-11-10T05:51:28.653Z,99.58
2022-11-10T05:52:28.647Z,99.58
2022-11-10T05:53:28.640Z,99.48
2022-11-10T05:54:28.623Z,99.48
2022-11-10T05:55:28.606Z,99.48
2022-11-10T05:56:28.600Z,99.48
2022-11-10T05:57:28.585Z,99.48
2022-11-10T05:58:28.588Z,99.48
2022-11-10T05:59:28.562Z,99.58
2022-11-10T06:00:28.559Z,99.58
2022-11-10T06:01:28.544Z,99.63
2022-11-10T06:02:28.534Z,99.63
2022-11-10T06:03:28.718Z,99.63
2022-11-10T06:04:28.515Z,99.63
2022-11-10T06:05:31.324Z,99.73
2022-11-10T06:06:28.487Z,99.83
2022-11-10T06:07:28.483Z,99.73
2022-11-10T06:08:28.474Z,99.73
2022-11-10T06:09:28.460Z,99.63
2022-11-10T06:10:28.444Z,99.63
2022-11-10T06:11:28.436Z,99.63
2022-11-10T06:12:28.420Z,99.67
2022-11-10T06:13:28.424Z,99.67
2022-11-10T06:14:28.410Z,99.77
2022-11-10T06:15:28.391Z,99.88
2022-11-10T06:16:28.377Z,99.98
2022-11-10T06:17:28.370Z,99.99
2022-11-10T06:18:28.365Z,99.99
2022-11-10T06:19:28.346Z,99.99
2022-11-10T06:20:28.331Z,99.99
2022-11-10T06:21:28.327Z,99.99
2022-11-10T06:22:28.309Z,99.99
2022-11-10T06:23:28.313Z,99.99
2022-11-10T06:24:28.291Z,99.99
2022-11-10T06:25:28.281Z,99.99
2022-11-10T06:26:28.268Z,99.99
2022-11-10T06:27:28.257Z,99.99
2022-11-10T06:28:28.254Z,99.99
2022-11-10T06:29:28.240Z,99.99
2022-11-10T06:30:28.222Z,99.99
2022-11-10T06:31:28.221Z,99.99
2022-11-10T06:32:28.198Z,99.99
2022-11-10T06:33:28.200Z,99.99
2022-11-10T06:34:28.204Z,99.99
2022-11-10T06:35:28.173Z,99.99
2022-11-10T06:36:28.154Z,99.99
2022-11-10T06:37:28.150Z,99.99
2022-11-10T06:38:28.146Z,99.99
2022-11-10T06:39:28.125Z,99.99
2022-11-10T06:40:28.115Z,99.99
2022-11-10T06:41:28.109Z,99.99
2022-11-10T06:42:28.090Z,99.99
2022-11-10T06:43:28.093Z,99.99
2022-11-10T06:44:28.071Z,99.99
2022-11-10T06:45:28.060Z,99.99
2022-11-10T06:46:28.046Z,99.99
2022-11-10T06:47:28.046Z,99.99
2022-11-10T06:48:28.035Z,99.89
2022-11-10T06:49:28.018Z,99.89
2022-11-10T06:50:28.000Z,99.79
2022-11-10T06:51:27.998Z,99.79
2022-11-10T06:52:27.981Z,99.89
2022-11-10T06:53:28.402Z,99.79
2022-11-10T06:54:27.957Z,99.79
2022-11-10T06:55:27.950Z,99.68
2022-11-10T06:56:27.936Z,99.68
2022-11-10T06:57:27.931Z,99.68
2022-11-10T06:58:27.925Z,99.68
2022-11-10T06:59:27.905Z,99.58
2022-11-10T07:00:27.893Z,99.58
2022-11-10T07:01:27.914Z,99.58
2022-11-10T07:02:27.870Z,99.48
2022-11-10T07:03:27.873Z,99.48
2022-11-10T07:04:27.851Z,99.43
2022-11-10T07:05:27.840Z,99.33
2022-11-10T07:06:27.847Z,99.22
2022-11-10T07:07:33.844Z,99.22
2022-11-10T07:08:27.815Z,99.22
2022-11-10T07:09:27.790Z,99.22
2022-11-10T07:10:27.784Z,99.22
2022-11-10T07:11:27.768Z,99.12
2022-11-10T07:12:27.764Z,99.12
2022-11-10T07:13:27.759Z,99.12
2022-11-10T07:14:27.740Z,99.02
2022-11-10T07:15:27.726Z,99.02
2022-11-10T07:16:27.718Z,98.92
2022-11-10T07:17:27.709Z,98.92
2022-11-10T07:18:27.706Z,98.92
2022-11-10T07:19:27.682Z,98.82
2022-11-10T07:20:27.676Z,98.82
2022-11-10T07:21:27.660Z,98.82
2022-11-10T07:22:27.653Z,98.82
2022-11-10T07:23:27.651Z,98.82
2022-11-10T07:24:27.628Z,98.77
2022-11-10T07:25:27.617Z,98.77
2022-11-10T07:26:27.608Z,98.77
2022-11-10T07:27:27.598Z,98.67
2022-11-10T07:28:28.562Z,98.67
2022-11-10T07:29:27.569Z,98.57
2022-11-10T07:30:27.722Z,98.67
2022-11-10T07:31:27.549Z,98.57
2022-11-10T07:32:27.546Z,98.46
2022-11-10T07:33:27.535Z,98.46
2022-11-10T07:34:27.519Z,98.46
2022-11-10T07:35:27.506Z,98.57
2022-11-10T07:36:27.503Z,98.57
2022-11-10T07:37:27.492Z,98.57
2022-11-10T07:38:27.487Z,98.57
2022-11-10T07:39:27.463Z,98.46
2022-11-10T07:40:27.558Z,98.36
2022-11-10T07:41:27.442Z,98.36
2022-11-10T07:42:27.434Z,98.25
2022-11-10T07:43:27.425Z,98.21
2022-11-10T07:44:27.410Z,98.21
2022-11-10T07:45:27.395Z,98.21
2022-11-10T07:46:27.391Z,98.11
2022-11-10T07:47:27.375Z,98.11
2022-11-10T07:48:27.596Z,98.11
2022-11-10T07:49:27.361Z,98.11
2022-11-10T07:50:27.373Z,98.11
2022-11-10T07:51:27.330Z,98.00
2022-11-10T07:52:27.325Z,98.00
2022-11-10T07:53:27.318Z,97.91
2022-11-10T07:54:27.300Z,97.91
2022-11-10T07:55:27.286Z,97.91
2022-11-10T07:56:27.279Z,97.91
2022-11-10T07:57:27.263Z,97.75
2022-11-10T07:58:27.274Z,97.75
2022-11-10T07:59:27.243Z,97.65
2022-11-10T08:00:27.308Z,97.55
2022-11-10T08:01:27.274Z,97.55
2022-11-10T08:02:27.218Z,97.45
2022-11-10T08:03:27.209Z,97.45
2022-11-10T08:04:27.193Z,97.34
2022-11-10T08:05:27.175Z,97.34
2022-11-10T08:06:28.456Z,97.24
2022-11-10T08:07:27.269Z,97.14
2022-11-10T08:08:27.158Z,96.99
2022-11-10T08:09:27.134Z,96.99
2022-11-10T08:10:27.156Z,96.89
2022-11-10T08:11:27.260Z,96.69
2022-11-10T08:12:29.953Z,96.48
2022-11-10T08:13:27.113Z,96.38
2022-11-10T08:14:27.081Z,96.28
2022-11-10T08:15:27.068Z,96.17
2022-11-10T08:16:27.063Z,96.17
2022-11-10T08:17:27.046Z,96.13
2022-11-10T08:18:32.347Z,96.23
2022-11-10T08:19:27.028Z,96.23
2022-11-10T08:20:27.016Z,96.13
2022-11-10T08:21:27.002Z,96.13
2022-11-10T08:22:26.999Z,96.13
2022-11-10T08:23:26.988Z,96.13
2022-11-10T08:24:26.985Z,95.92
2022-11-10T08:25:31.616Z,95.92
2022-11-10T08:26:26.959Z,95.72
2022-11-10T08:27:26.935Z,95.67
2022-11-10T08:28:26.939Z,95.67
2022-11-10T08:29:26.917Z,95.67
2022-11-10T08:30:26.904Z,95.67
2022-11-10T08:31:26.892Z,95.67
2022-11-10T08:32:26.885Z,95.57
2022-11-10T08:33:26.916Z,95.57
2022-11-10T08:34:26.860Z,95.37
2022-11-10T08:35:26.846Z,95.26
2022-11-10T08:36:26.840Z,95.06
2022-11-10T08:37:26.823Z,95.06
2022-11-10T08:38:26.829Z,95.02
2022-11-10T08:39:38.655Z,95.02
2022-11-10T08:40:26.799Z,95.02
2022-11-10T08:41:26.780Z,95.02
2022-11-10T08:42:26.770Z,94.92
2022-11-10T08:43:26.860Z,94.92
2022-11-10T08:44:26.766Z,94.51
2022-11-10T08:45:26.736Z,94.40
2022-11-10T08:46:26.735Z,94.30
2022-11-10T08:47:26.711Z,94.30
2022-11-10T08:48:26.715Z,94.36
2022-11-10T08:49:26.689Z,94.15
2022-11-10T08:50:26.684Z,94.06
2022-11-10T08:51:26.668Z,94.06
2022-11-10T08:52:26.661Z,93.95
2022-11-10T08:53:26.788Z,93.74
2022-11-10T08:54:26.640Z,93.65
2022-11-10T08:55:26.625Z,93.54
2022-11-10T08:56:26.621Z,93.54
2022-11-10T08:57:26.604Z,93.54
2022-11-10T08:58:26.622Z,93.50
2022-11-10T08:59:26.580Z,93.19
2022-11-10T09:00:26.574Z,93.29
2022-11-10T09:01:26.555Z,93.09
2022-11-10T09:02:26.551Z,93.29
2022-11-10T09:03:26.990Z,93.50
2022-11-10T09:04:26.572Z,92.99
2022-11-10T09:05:26.516Z,93.09
2022-11-10T09:06:26.509Z,93.09
2022-11-10T09:07:26.577Z,93.09
2022-11-10T09:08:26.502Z,92.88
2022-11-10T09:09:26.469Z,92.88
2022-11-10T09:10:26.464Z,92.64
2022-11-10T09:11:26.447Z,92.43
2022-11-10T09:12:26.440Z,92.54
2022-11-10T09:13:30.128Z,92.64
2022-11-10T09:14:26.418Z,92.64
2022-11-10T09:15:26.402Z,92.33
2022-11-10T09:16:26.401Z,92.02
2022-11-10T09:17:26.452Z,92.02
2022-11-10T09:18:26.383Z,91.72
2022-11-10T09:19:26.472Z,91.61
2022-11-10T09:20:26.357Z,91.78
2022-11-10T09:21:26.335Z,91.98
2022-11-10T09:22:26.330Z,91.88
2022-11-10T09:23:26.477Z,91.47
2022-11-10T09:24:31.140Z,91.37
2022-11-10T09:25:26.299Z,91.06
2022-11-10T09:26:26.286Z,91.06
2022-11-10T09:27:26.271Z,91.16
2022-11-10T09:28:26.273Z,91.43
2022-11-10T09:29:26.248Z,91.22
2022-11-10T09:30:26.242Z,91.02
2022-11-10T09:31:26.227Z,90.61
2022-11-10T09:32:26.221Z,90.51
2022-11-10T09:33:26.480Z,90.51
2022-11-10T09:34:26.197Z,90.51
2022-11-10T09:35:26.189Z,90.41
2022-11-10T09:36:26.178Z,90.31
2022-11-10T09:37:26.163Z,90.41
2022-11-10T09:38:26.167Z,90.26
2022-11-10T09:39:26.146Z,90.26
2022-11-10T09:40:26.132Z,90.06
2022-11-10T09:41:26.117Z,89.86
2022-11-10T09:42:26.111Z,89.65
2022-11-10T09:43:26.107Z,89.34
2022-11-10T09:44:26.087Z,89.45
2022-11-10T09:45:26.083Z,89.45
2022-11-10T09:46:26.077Z,89.45
2022-11-10T09:48:26.061Z,89.96
2022-11-10T09:49:26.028Z,89.51
2022-11-10T09:50:26.046Z,88.79
2022-11-10T09:51:26.009Z,88.69
2022-11-10T09:52:26.054Z,88.79
2022-11-10T09:53:25.996Z,88.90
2022-11-10T09:54:25.978Z,88.59
2022-11-10T09:55:25.962Z,88.59
2022-11-10T09:56:25.955Z,88.49
2022-11-10T09:57:25.941Z,88.79
2022-11-10T09:58:25.953Z,88.55
2022-11-10T09:59:25.918Z,88.24
2022-11-10T10:00:25.965Z,88.04
2022-11-10T10:01:25.927Z,88.04
2022-11-10T10:02:25.889Z,88.14
2022-11-10T10:03:25.894Z,87.73
2022-11-10T10:04:25.869Z,87.53
2022-11-10T10:05:25.851Z,87.53
2022-11-10T10:06:30.569Z,87.63
2022-11-10T10:07:25.898Z,87.38
2022-11-10T10:08:25.821Z,87.29
2022-11-10T10:09:25.828Z,87.29
2022-11-10T10:10:25.883Z,87.29
2022-11-10T10:11:25.790Z,86.98
2022-11-10T10:12:25.776Z,87.29
2022-11-10T10:13:25.767Z,87.49
2022-11-10T10:14:25.764Z,87.59
2022-11-10T10:15:26.026Z,87.59
2022-11-10T10:16:25.730Z,87.35
2022-11-10T10:17:27.167Z,87.14
2022-11-10T10:18:25.881Z,86.22
2022-11-10T10:19:25.705Z,86.53
2022-11-10T10:20:25.768Z,86.83
2022-11-10T10:21:25.674Z,86.74
2022-11-10T10:22:25.669Z,86.22
2022-11-10T10:23:40.702Z,85.92
2022-11-10T10:24:25.665Z,86.02
2022-11-10T10:25:25.630Z,86.22
2022-11-10T10:26:25.626Z,86.22
2022-11-10T10:27:25.609Z,86.22
2022-11-10T10:28:25.939Z,86.29
2022-11-10T10:29:25.599Z,86.59
2022-11-10T10:30:25.599Z,86.80
2022-11-10T10:31:25.563Z,86.19
2022-11-10T10:32:25.555Z,86.08
2022-11-10T10:33:25.542Z,86.19
2022-11-10T10:34:25.544Z,86.19
2022-11-10T10:35:25.520Z,86.08
2022-11-10T10:36:25.511Z,85.53
2022-11-10T10:37:25.496Z,85.33
2022-11-10T10:38:25.695Z,85.13
2022-11-10T10:39:25.487Z,85.23
2022-11-10T10:40:25.472Z,85.33
2022-11-10T10:41:25.457Z,85.33
2022-11-10T10:42:25.448Z,85.23
2022-11-10T10:43:25.430Z,85.09
2022-11-10T10:44:25.433Z,85.29
2022-11-10T10:45:25.486Z,84.99
2022-11-10T10:46:25.409Z,84.78
2022-11-10T10:47:25.388Z,84.78
2022-11-10T10:48:25.393Z,84.99
2022-11-10T10:49:30.212Z,84.38
2022-11-10T10:50:25.369Z,83.97
2022-11-10T10:51:25.344Z,84.58
2022-11-10T10:52:25.498Z,84.88
2022-11-10T10:53:25.331Z,84.99
2022-11-10T10:54:25.327Z,84.28
2022-11-10T10:55:25.299Z,84.17
2022-11-10T10:56:25.293Z,84.28
2022-11-10T10:57:25.281Z,84.58
2022-11-10T10:58:25.958Z,84.28
2022-11-10T10:59:25.272Z,84.48
2022-11-10T11:00:25.263Z,84.28
2022-11-10T11:01:25.279Z,84.28
2022-11-10T11:02:25.228Z,84.38
2022-11-10T11:03:25.220Z,84.68
2022-11-10T11:04:25.218Z,84.28
2022-11-10T11:05:25.189Z,84.68
2022-11-10T11:06:25.194Z,84.42
2022-11-10T11:07:25.171Z,84.42
2022-11-10T11:08:25.458Z,84.52
2022-11-10T11:09:25.159Z,84.48
2022-11-10T11:10:25.144Z,84.28
2022-11-10T11:11:25.125Z,83.76
2022-11-10T11:12:25.117Z,83.67
2022-11-10T11:13:25.103Z,83.76
2022-11-10T11:14:25.189Z,83.87
2022-11-10T11:15:25.099Z,83.76
2022-11-10T11:16:25.073Z,83.87
2022-11-10T11:17:25.097Z,84.38
2022-11-10T11:18:25.425Z,84.48
2022-11-10T11:19:25.046Z,84.48
2022-11-10T11:20:25.033Z,84.17
2022-11-10T11:21:25.018Z,84.28
2022-11-10T11:22:25.008Z,84.28
2022-11-10T11:23:24.996Z,83.46
2022-11-10T11:24:24.997Z,83.46
2022-11-10T11:25:24.973Z,83.22
2022-11-10T11:26:24.964Z,83.12
2022-11-10T11:27:24.986Z,83.01
2022-11-10T11:28:25.296Z,83.22
2022-11-10T11:29:24.936Z,83.22
2022-11-10T11:30:24.934Z,83.62
2022-11-10T11:31:24.907Z,83.83
2022-11-10T11:32:24.905Z,83.83
2022-11-10T11:33:24.885Z,83.22
2022-11-10T11:34:24.901Z,83.32
2022-11-10T11:35:24.911Z,83.53
2022-11-10T11:36:24.855Z,83.83
2022-11-10T11:37:24.839Z,84.03
2022-11-10T11:38:25.266Z,83.22
2022-11-10T11:39:24.829Z,82.98
2022-11-10T11:40:24.810Z,83.08
2022-11-10T11:41:24.793Z,83.18
2022-11-10T11:42:24.791Z,82.67
2022-11-10T11:43:24.776Z,82.57
2022-11-10T11:44:24.787Z,82.37
2022-11-10T11:45:24.767Z,82.57
2022-11-10T11:46:24.746Z,82.67
2022-11-10T11:47:24.729Z,82.06
2022-11-10T11:48:25.139Z,82.37
2022-11-10T11:49:24.720Z,81.86
2022-11-10T11:50:24.708Z,82.03
2022-11-10T11:51:24.689Z,81.21
2022-11-10T11:52:24.681Z,81.21
2022-11-10T11:53:24.664Z,81.01
2022-11-10T11:54:24.666Z,80.71
2022-11-10T11:55:24.643Z,80.60
2022-11-10T11:56:24.650Z,80.50
2022-11-10T11:57:24.629Z,80.91
2022-11-10T11:58:24.927Z,80.91
2022-11-10T11:59:24.606Z,80.87
2022-11-10T12:00:24.605Z,80.57
2022-11-10T12:01:24.580Z,80.46
2022-11-10T12:02:24.660Z,79.79
2022-11-10T12:03:24.554Z,79.99
2022-11-10T12:04:24.556Z,79.99
2022-11-10T12:05:24.533Z,80.50
2022-11-10T12:06:24.531Z,80.71
2022-11-10T12:07:24.515Z,80.19
2022-11-10T12:08:26.123Z,80.19
2022-11-10T12:09:24.498Z,79.99
2022-11-10T12:10:24.484Z,80.30
2022-11-10T12:11:24.468Z,80.30
2022-11-10T12:12:25.067Z,79.45
2022-11-10T12:13:24.449Z,79.55
2022-11-10T12:14:24.581Z,79.65
2022-11-10T12:15:24.452Z,79.96
2022-11-10T12:16:24.433Z,79.85
2022-11-10T12:17:24.404Z,79.85
2022-11-10T12:18:24.772Z,79.96
2022-11-10T12:19:24.384Z,79.85
2022-11-10T12:20:24.387Z,79.65
2022-11-10T12:21:24.377Z,79.55
2022-11-10T12:22:24.345Z,79.35
2022-11-10T12:23:24.330Z,79.45
2022-11-10T12:24:24.333Z,79.14
2022-11-10T12:25:24.309Z,78.84
2022-11-10T12:26:24.344Z,78.19
2022-11-10T12:27:24.311Z,78.50
2022-11-10T12:28:24.787Z,78.19
2022-11-10T12:29:24.324Z,78.40
2022-11-10T12:30:24.263Z,78.46
2022-11-10T12:31:24.241Z,79.00
2022-11-10T12:32:24.233Z,78.77
2022-11-10T12:33:24.219Z,77.86
2022-11-10T12:34:24.224Z,78.36
2022-11-10T12:35:24.197Z,78.87
2022-11-10T12:36:24.190Z,78.87
2022-11-10T12:37:27.837Z,78.97
2022-11-10T12:38:24.543Z,78.46
2022-11-10T12:39:24.160Z,77.55
2022-11-10T12:40:24.146Z,77.34
2022-11-10T12:41:24.133Z,77.14
2022-11-10T12:42:24.121Z,77.04
2022-11-10T12:43:24.540Z,77.25
2022-11-10T12:44:24.107Z,77.55
2022-11-10T12:45:24.083Z,77.34
2022-11-10T12:46:24.077Z,77.34
2022-11-10T12:47:24.061Z,76.90
2022-11-10T12:48:24.362Z,76.43
2022-11-10T12:49:24.070Z,76.43
2022-11-10T12:50:24.035Z,77.04
2022-11-10T12:51:24.018Z,77.55
2022-11-10T12:52:24.010Z,77.55
2022-11-10T12:53:23.994Z,77.55